Time;durP1;ratioP1;P1;durP2;ratioP2;P2;SDS_P1;SDS_P2;PMS_P1;PMS_P2;Temp;Humidity;BMP_temperature;BMP_pressure;BME280_temperature;BME280_humidity;BME280_pressure;Samples;Min_cycle;Max_cycle;Signal;HPM_P1;HPM_P2
2022/04/16 00:00:56;;;;;;;;;82.40;72.60;27.00;99.90;;;;;;5057502;28;8727;-68
2022/04/16 00:03:23;;;;;;;;;90.60;83.20;27.10;99.90;;;;;;5056589;28;9379;-67
2022/04/16 00:05:54;;;;;;;;;95.00;88.20;27.10;99.90;;;;;;5031281;28;8765;-68
2022/04/16 00:08:21;;;;;;;;;90.80;85.40;27.10;99.90;;;;;;5019522;28;8752;-67
2022/04/16 00:10:48;;;;;;;;;83.20;75.60;27.10;99.90;;;;;;5036794;28;8792;-69
2022/04/16 00:13:16;;;;;;;;;87.20;75.20;27.10;99.90;;;;;;5019843;28;8819;-68
2022/04/16 00:15:44;;;;;;;;;84.80;75.60;27.10;99.90;;;;;;5019295;28;8749;-68
2022/04/16 00:18:10;;;;;;;;;92.20;79.20;27.20;99.90;;;;;;5036688;28;8796;-68
2022/04/16 00:20:38;;;;;;;;;79.20;71.60;27.20;99.90;;;;;;5033853;28;9024;-68
2022/04/16 00:23:05;;;;;;;;;94.40;82.60;27.30;99.90;;;;;;5056226;28;8739;-68
2022/04/16 00:25:34;;;;;;;;;89.60;81.40;27.20;99.90;;;;;;5056293;28;8758;-68
2022/04/16 00:28:04;;;;;;;;;86.80;77.40;27.20;99.90;;;;;;5057168;28;8745;-68
2022/04/16 00:30:49;;;;;;;;;94.60;81.60;27.20;99.90;;;;;;5056375;28;8802;-68
2022/04/16 00:33:18;;;;;;;;;90.60;83.80;27.30;99.90;;;;;;5056576;28;8745;-68
2022/04/16 00:35:45;;;;;;;;;87.60;80.00;27.30;99.90;;;;;;5032068;28;8777;-68
2022/04/16 00:38:12;;;;;;;;;87.20;80.20;27.20;99.90;;;;;;5019240;28;8863;-68
2022/04/16 00:40:39;;;;;;;;;104.80;90.40;27.20;99.90;;;;;;5036273;28;8761;-68
2022/04/16 00:43:06;;;;;;;;;83.80;77.80;27.30;99.90;;;;;;5037009;28;8737;-68
2022/04/16 00:45:33;;;;;;;;;96.40;88.60;27.30;99.90;;;;;;5018957;28;8753;-68
2022/04/16 00:47:59;;;;;;;;;96.20;89.20;27.30;99.90;;;;;;5036461;28;8826;-68
2022/04/16 00:50:26;;;;;;;;;106.00;91.00;27.40;99.90;;;;;;5022363;28;8763;-67
2022/04/16 00:52:53;;;;;;;;;103.20;89.60;27.30;99.90;;;;;;5038780;28;8852;-68
2022/04/16 00:55:20;;;;;;;;;105.20;95.60;27.40;99.90;;;;;;5056550;28;9487;-67
2022/04/16 00:57:46;;;;;;;;;119.20;103.40;27.50;99.90;;;;;;5038333;28;8747;-68
2022/04/16 01:00:14;;;;;;;;;116.80;102.00;27.50;99.90;;;;;;5056343;28;9363;-68
2022/04/16 01:02:40;;;;;;;;;119.00;104.00;27.60;99.90;;;;;;5056041;28;8723;-68
2022/04/16 01:05:09;;;;;;;;;113.00;101.00;27.60;99.90;;;;;;5054802;28;8767;-68
2022/04/16 01:07:36;;;;;;;;;120.20;106.20;27.60;99.90;;;;;;5018409;28;9402;-68
2022/04/16 01:10:05;;;;;;;;;106.80;100.80;27.70;99.90;;;;;;5019134;28;8722;-68
2022/04/16 01:12:32;;;;;;;;;114.20;102.00;27.70;99.90;;;;;;5035740;28;8770;-68
2022/04/16 01:14:59;;;;;;;;;109.20;97.80;27.70;99.90;;;;;;5036269;28;8734;-68
2022/04/16 01:17:25;;;;;;;;;104.20;92.40;27.80;99.90;;;;;;5037691;28;8717;-68
2022/04/16 01:19:52;;;;;;;;;97.20;88.60;27.90;99.90;;;;;;5040159;28;9113;-68
2022/04/16 01:22:20;;;;;;;;;103.20;88.40;27.90;99.90;;;;;;5059737;28;8822;-68
2022/04/16 01:24:48;;;;;;;;;89.00;81.60;28.00;99.90;;;;;;5060018;28;8751;-69
2022/04/16 01:27:16;;;;;;;;;87.80;77.20;28.00;99.90;;;;;;5059431;28;8879;-68
2022/04/16 01:29:44;;;;;;;;;81.40;71.60;28.00;99.90;;;;;;5041790;28;8811;-68
2022/04/16 01:32:10;;;;;;;;;77.20;63.20;28.00;99.90;;;;;;5058798;28;8777;-68
2022/04/16 01:34:37;;;;;;;;;72.00;54.60;28.10;99.90;;;;;;5059380;28;8771;-68
2022/04/16 01:37:04;;;;;;;;;75.00;63.20;28.20;99.90;;;;;;5042538;28;8761;-68
2022/04/16 01:39:31;;;;;;;;;69.60;58.20;28.20;99.90;;;;;;5039246;28;8764;-68
2022/04/16 01:41:58;;;;;;;;;71.60;55.60;28.20;99.90;;;;;;5039315;28;8864;-67
2022/04/16 01:44:25;;;;;;;;;72.20;58.60;28.20;99.90;;;;;;5039542;28;9425;-68
2022/04/16 01:46:52;;;;;;;;;70.60;53.20;28.30;99.90;;;;;;5039368;28;8764;-68
2022/04/16 01:49:20;;;;;;;;;71.60;55.80;28.30;99.90;;;;;;5039401;28;8765;-68
2022/04/16 01:51:48;;;;;;;;;68.60;55.40;28.30;99.90;;;;;;5036470;28;8740;-69
2022/04/16 01:54:15;;;;;;;;;71.80;54.40;28.40;99.90;;;;;;5041683;28;8817;-69
2022/04/16 01:56:41;;;;;;;;;68.00;53.40;28.40;99.90;;;;;;5041402;28;8889;-68
2022/04/16 01:59:08;;;;;;;;;74.40;57.40;28.40;99.90;;;;;;5059220;28;8782;-69
2022/04/16 02:01:35;;;;;;;;;70.80;54.00;28.40;99.90;;;;;;5058923;28;8739;-68
2022/04/16 02:04:02;;;;;;;;;66.60;52.00;28.40;99.90;;;;;;5041810;28;8771;-69
2022/04/16 02:06:29;;;;;;;;;69.20;56.20;28.40;99.90;;;;;;5028517;28;9425;-68
2022/04/16 02:08:56;;;;;;;;;73.20;53.80;28.50;99.90;;;;;;5039117;28;8784;-68
2022/04/16 02:11:23;;;;;;;;;73.00;57.80;28.50;99.90;;;;;;5038886;28;8903;-68
2022/04/16 02:13:49;;;;;;;;;67.00;52.20;28.60;99.90;;;;;;5021398;28;8763;-68
2022/04/16 02:16:16;;;;;;;;;64.40;52.00;28.70;99.90;;;;;;5021835;28;8772;-68
2022/04/16 02:18:43;;;;;;;;;65.00;50.60;28.60;99.90;;;;;;5021465;28;8738;-68
2022/04/16 02:21:10;;;;;;;;;68.20;52.40;28.60;99.90;;;;;;5048910;28;8763;-68
2022/04/16 02:23:37;;;;;;;;;65.80;52.40;28.60;99.90;;;;;;5058677;28;8763;-68
2022/04/16 02:26:07;;;;;;;;;67.20;52.80;28.60;99.90;;;;;;5058914;28;8774;-68
2022/04/16 02:28:34;;;;;;;;;66.60;53.40;28.60;99.90;;;;;;5057117;28;8801;-68
2022/04/16 02:31:01;;;;;;;;;68.00;54.60;28.70;99.90;;;;;;5059094;28;8742;-68
2022/04/16 02:33:27;;;;;;;;;68.80;54.00;28.80;99.90;;;;;;5058567;28;8755;-67
2022/04/16 02:35:54;;;;;;;;;65.60;50.40;28.90;99.90;;;;;;5050830;28;8767;-68
2022/04/16 02:38:21;;;;;;;;;64.80;50.20;29.00;99.90;;;;;;5038352;28;8781;-68
2022/04/16 02:40:47;;;;;;;;;68.40;52.00;29.00;99.90;;;;;;5020810;28;8960;-68
2022/04/16 02:43:14;;;;;;;;;65.00;52.60;29.10;99.90;;;;;;5039032;28;8753;-68
2022/04/16 02:48:26;;;;;;;;;66.00;51.40;29.10;99.90;;;;;;5023224;28;8772;-68
2022/04/16 02:50:53;;;;;;;;;67.40;53.80;29.20;99.90;;;;;;5046058;28;9388;-68
2022/04/16 02:53:20;;;;;;;;;66.40;53.60;29.20;99.90;;;;;;5040329;28;8844;-67
2022/04/16 02:55:49;;;;;;;;;67.00;52.20;29.30;99.90;;;;;;5058285;28;8775;-67
2022/04/16 02:58:16;;;;;;;;;64.20;51.60;29.30;99.90;;;;;;5041315;28;8747;-68
2022/04/16 03:00:42;;;;;;;;;66.80;52.20;29.30;99.90;;;;;;5040504;28;8757;-68
2022/04/16 03:03:09;;;;;;;;;61.60;48.00;29.40;99.90;;;;;;5058046;28;9293;-68
2022/04/16 03:05:36;;;;;;;;;68.00;53.60;29.40;99.90;;;;;;5052244;28;8777;-68
2022/04/16 03:08:06;;;;;;;;;62.00;48.60;29.40;99.90;;;;;;5020701;28;9429;-68
2022/04/16 03:10:33;;;;;;;;;61.00;49.40;29.40;99.90;;;;;;5037601;28;8753;-68
2022/04/16 03:12:59;;;;;;;;;65.80;51.80;29.50;99.90;;;;;;5038379;28;8721;-68
2022/04/16 03:18:11;;;;;;;;;64.60;51.00;29.50;99.90;;;;;;5037608;28;8777;-68
2022/04/16 03:20:39;;;;;;;;;65.40;50.40;29.60;99.90;;;;;;5042962;28;8767;-68
2022/04/16 03:23:05;;;;;;;;;66.80;52.40;29.60;99.90;;;;;;5057808;28;8754;-68
2022/04/16 03:25:32;;;;;;;;;54.00;42.20;29.60;99.90;;;;;;5057203;28;8761;-67
2022/04/16 03:27:59;;;;;;;;;69.40;52.60;29.70;99.90;;;;;;5040345;28;8734;-68
2022/04/16 03:30:26;;;;;;;;;68.20;52.80;29.70;99.90;;;;;;5039268;28;9527;-67
2022/04/16 03:32:53;;;;;;;;;63.40;50.60;29.90;99.90;;;;;;5039781;28;8749;-68
2022/04/16 03:35:20;;;;;;;;;64.80;51.00;30.00;99.90;;;;;;5036481;28;8859;-67
2022/04/16 03:37:47;;;;;;;;;68.40;53.40;29.90;99.90;;;;;;5037617;28;8765;-68
2022/04/16 03:40:14;;;;;;;;;66.40;53.20;30.10;99.90;;;;;;5037533;28;8839;-68
2022/04/16 03:42:47;;;;;;;;;62.00;48.60;30.20;99.90;;;;;;5037057;28;8733;-68
2022/04/16 03:45:22;;;;;;;;;68.80;52.40;30.00;99.90;;;;;;5019713;28;8757;-68
2022/04/16 03:47:49;;;;;;;;;70.00;54.40;30.00;99.90;;;;;;5037314;28;8871;-68
2022/04/16 03:50:17;;;;;;;;;64.20;51.20;30.10;99.90;;;;;;5039573;28;8741;-68
2022/04/16 03:52:45;;;;;;;;;67.20;52.40;30.20;99.90;;;;;;5056916;28;8750;-68
2022/04/16 04:00:46;;;;;;;;;65.40;49.20;30.00;99.90;;;;;;5057470;28;8743;-68
2022/04/16 04:03:13;;;;;;;;;63.20;49.40;30.10;99.90;;;;;;5057086;28;8773;-68
2022/04/16 04:05:40;;;;;;;;;69.60;57.60;30.10;99.90;;;;;;5033043;28;8787;-68
2022/04/16 04:08:07;;;;;;;;;64.80;51.40;30.10;99.90;;;;;;5036964;28;8760;-68
2022/04/16 04:10:34;;;;;;;;;66.20;52.40;30.30;99.90;;;;;;5036325;28;8753;-67
2022/04/16 04:13:00;;;;;;;;;69.40;53.00;30.40;99.90;;;;;;5037262;28;8733;-67
2022/04/16 04:15:27;;;;;;;;;65.40;51.40;30.40;99.90;;;;;;5052027;28;8807;-67
2022/04/16 04:17:54;;;;;;;;;69.80;56.00;30.50;99.90;;;;;;5037265;28;8729;-67
2022/04/16 04:20:21;;;;;;;;;70.80;53.60;30.60;99.90;;;;;;5022673;28;8743;-67
2022/04/16 04:22:48;;;;;;;;;62.60;49.80;30.50;99.90;;;;;;5056818;28;8747;-68
2022/04/16 04:25:14;;;;;;;;;65.80;52.20;30.50;99.90;;;;;;5057555;28;8833;-67
2022/04/16 04:27:41;;;;;;;;;68.20;53.60;30.50;99.90;;;;;;5038850;28;8723;-67
2022/04/16 04:30:08;;;;;;;;;68.80;53.60;30.70;99.90;;;;;;5038371;28;8739;-67
2022/04/16 04:32:36;;;;;;;;;65.60;52.00;30.90;99.90;;;;;;5056510;28;8719;-67
2022/04/16 04:35:03;;;;;;;;;66.60;52.60;30.90;99.90;;;;;;5055899;28;8723;-68
2022/04/16 04:37:33;;;;;;;;;69.00;52.60;30.90;99.90;;;;;;5019238;28;8769;-67
2022/04/16 04:39:59;;;;;;;;;65.20;53.40;30.90;99.90;;;;;;5020316;28;8924;-67
2022/04/16 04:42:27;;;;;;;;;63.20;50.40;30.80;99.90;;;;;;5037013;28;8773;-68
2022/04/16 04:44:54;;;;;;;;;63.40;52.20;30.80;99.90;;;;;;5036575;28;8777;-68
2022/04/16 04:47:21;;;;;;;;;69.40;53.60;30.70;99.90;;;;;;5019065;28;8761;-67
2022/04/16 04:49:48;;;;;;;;;71.40;56.60;30.80;99.90;;;;;;5036976;28;8788;-67
2022/04/16 04:52:27;;;;;;;;;67.20;54.00;30.70;99.90;;;;;;5059216;28;9519;-67
2022/04/16 04:54:54;;;;;;;;;70.20;55.00;30.70;99.90;;;;;;5044209;28;8781;-67
2022/04/16 04:57:21;;;;;;;;;68.20;53.80;30.90;99.90;;;;;;5060363;28;9463;-67
2022/04/16 04:59:47;;;;;;;;;65.20;50.60;30.90;99.90;;;;;;5060989;28;8770;-67
2022/04/16 05:02:17;;;;;;;;;67.20;53.40;31.00;99.90;;;;;;5060814;28;8892;-67
2022/04/16 05:04:44;;;;;;;;;61.40;47.40;30.90;99.90;;;;;;5060958;28;8811;-66
2022/04/16 05:07:11;;;;;;;;;67.00;51.80;30.90;99.90;;;;;;5042928;28;8788;-68
2022/04/16 05:09:37;;;;;;;;;70.00;56.20;31.00;99.90;;;;;;5022841;28;8905;-67
2022/04/16 05:12:05;;;;;;;;;62.20;50.60;31.20;99.90;;;;;;5040842;28;8784;-67
2022/04/16 05:14:34;;;;;;;;;69.60;52.40;31.20;99.90;;;;;;5056312;28;8811;-67
2022/04/16 05:17:01;;;;;;;;;67.40;55.40;31.30;99.90;;;;;;5023499;28;8757;-68
2022/04/16 05:19:29;;;;;;;;;69.80;54.20;31.80;99.90;;;;;;5055662;28;8745;-67
2022/04/16 05:21:56;;;;;;;;;71.20;54.20;31.60;99.90;;;;;;5057107;28;8863;-68
2022/04/16 05:24:23;;;;;;;;;68.40;53.60;31.50;99.90;;;;;;5060391;28;8755;-68
2022/04/16 05:26:49;;;;;;;;;71.20;57.80;31.70;99.90;;;;;;5042368;28;8762;-67
2022/04/16 05:29:17;;;;;;;;;69.40;57.40;31.80;99.90;;;;;;5060581;28;8762;-68
2022/04/16 05:31:44;;;;;;;;;66.00;50.20;31.80;99.90;;;;;;5042512;28;8720;-68
2022/04/16 05:34:19;;;;;;;;;72.20;58.80;31.80;99.90;;;;;;5043063;28;8741;-68
2022/04/16 05:36:50;;;;;;;;;70.60;57.20;31.80;99.90;;;;;;5045717;28;8753;-68
2022/04/16 05:39:17;;;;;;;;;71.60;59.00;31.70;99.90;;;;;;5040629;28;8773;-68
2022/04/16 05:41:43;;;;;;;;;69.40;55.60;31.70;99.70;;;;;;5040489;28;8769;-68
2022/04/16 05:44:10;;;;;;;;;71.20;58.00;31.80;99.90;;;;;;5040470;28;8773;-68
2022/04/16 05:46:37;;;;;;;;;68.60;55.60;31.80;99.90;;;;;;5055481;28;8772;-68
2022/04/16 05:49:04;;;;;;;;;65.80;52.40;32.10;99.90;;;;;;5006860;28;8757;-68
2022/04/16 05:51:30;;;;;;;;;67.20;52.80;32.40;98.60;;;;;;5052173;28;8781;-68
2022/04/16 05:53:57;;;;;;;;;68.20;53.00;32.30;98.80;;;;;;5060160;28;8779;-68
2022/04/16 05:56:24;;;;;;;;;71.00;56.00;32.10;99.20;;;;;;5042185;28;8766;-68
2022/04/16 05:58:50;;;;;;;;;66.40;51.40;32.00;99.40;;;;;;5041778;28;8759;-68
2022/04/16 06:01:18;;;;;;;;;69.40;53.20;32.20;99.90;;;;;;5076329;28;8797;-68
2022/04/16 06:03:45;;;;;;;;;67.20;53.00;32.10;99.60;;;;;;5058912;28;8743;-67
2022/04/16 06:06:12;;;;;;;;;65.20;52.20;32.50;98.30;;;;;;5032222;28;8781;-68
2022/04/16 06:08:38;;;;;;;;;66.40;51.80;32.50;98.20;;;;;;5039726;28;8772;-68
2022/04/16 06:11:06;;;;;;;;;56.80;45.80;32.40;99.10;;;;;;5022530;28;8745;-68
2022/04/16 06:13:33;;;;;;;;;65.80;51.80;32.60;98.70;;;;;;5039638;28;8732;-68
2022/04/16 06:15:59;;;;;;;;;62.80;49.80;32.70;97.50;;;;;;5040297;28;9421;-68
2022/04/16 06:18:27;;;;;;;;;67.20;52.80;32.50;98.40;;;;;;5005207;28;8745;-68
2022/04/16 06:20:54;;;;;;;;;63.80;51.80;32.30;99.50;;;;;;5029212;28;8759;-68
2022/04/16 06:23:21;;;;;;;;;61.00;50.20;32.80;98.80;;;;;;5059198;28;8774;-68
2022/04/16 06:25:48;;;;;;;;;59.80;47.00;32.80;98.70;;;;;;5041498;28;8755;-68
2022/04/16 06:28:14;;;;;;;;;65.00;49.60;33.00;98.20;;;;;;5042262;28;8821;-68
2022/04/16 06:30:41;;;;;;;;;66.60;51.80;33.00;98.70;;;;;;5041172;28;8765;-68
2022/04/16 06:33:08;;;;;;;;;64.00;51.00;33.10;97.20;;;;;;5057830;28;8761;-68
2022/04/16 06:35:35;;;;;;;;;56.00;47.20;33.00;97.60;;;;;;5053760;28;8733;-68
2022/04/16 06:38:01;;;;;;;;;65.40;51.20;33.00;97.40;;;;;;5038990;28;8768;-68
2022/04/16 06:40:29;;;;;;;;;63.20;50.60;33.20;97.70;;;;;;5038602;28;9382;-68
2022/04/16 06:42:55;;;;;;;;;60.60;49.60;32.80;98.20;;;;;;5039512;28;8819;-68
2022/04/16 06:45:22;;;;;;;;;65.80;50.60;32.50;98.90;;;;;;5038517;28;8755;-67
2022/04/16 06:47:51;;;;;;;;;62.00;48.80;32.70;98.20;;;;;;5038884;28;8733;-68
2022/04/16 06:50:21;;;;;;;;;62.60;50.40;33.10;96.40;;;;;;5023780;28;8725;-66
2022/04/16 06:52:47;;;;;;;;;56.40;46.20;32.80;96.90;;;;;;5058981;28;8759;-68
2022/04/16 06:55:14;;;;;;;;;62.20;50.00;33.00;97.50;;;;;;5059642;28;8731;-68
2022/04/16 06:57:41;;;;;;;;;65.20;50.60;33.20;98.00;;;;;;5040821;28;8762;-68
2022/04/16 07:00:08;;;;;;;;;61.20;49.00;33.30;95.80;;;;;;5041102;28;8758;-68
2022/04/16 07:02:36;;;;;;;;;60.80;46.00;33.20;96.30;;;;;;5040987;28;8770;-68
2022/04/16 07:05:03;;;;;;;;;64.20;51.40;33.20;96.50;;;;;;5040327;28;8763;-67
2022/04/16 07:07:30;;;;;;;;;64.80;50.80;33.10;96.20;;;;;;5038520;28;8911;-68
2022/04/16 07:09:56;;;;;;;;;60.80;48.00;32.80;96.50;;;;;;5054499;28;8785;-67
2022/04/16 07:12:23;;;;;;;;;61.00;46.40;33.00;97.20;;;;;;5038479;28;8765;-67
2022/04/16 07:14:50;;;;;;;;;57.80;46.20;33.10;97.20;;;;;;5054276;28;8819;-68
2022/04/16 07:17:16;;;;;;;;;63.80;50.60;33.20;96.50;;;;;;5038664;28;8746;-66
2022/04/16 07:19:43;;;;;;;;;60.80;47.60;33.00;96.40;;;;;;5038452;28;8760;-69
2022/04/16 07:22:10;;;;;;;;;61.20;48.40;33.00;96.50;;;;;;5056849;28;8774;-68
2022/04/16 07:24:38;;;;;;;;;62.60;48.20;33.10;97.00;;;;;;5057996;28;9427;-68
2022/04/16 07:27:06;;;;;;;;;57.40;46.60;33.20;96.50;;;;;;5058341;28;8751;-68
2022/04/16 07:29:33;;;;;;;;;60.40;48.00;33.20;96.00;;;;;;5057365;28;8796;-68
2022/04/16 07:31:59;;;;;;;;;61.60;47.80;33.40;97.20;;;;;;5058386;28;8743;-68
2022/04/16 07:34:27;;;;;;;;;60.00;45.60;33.60;96.70;;;;;;5057776;28;8739;-66
2022/04/16 07:36:53;;;;;;;;;60.20;47.80;33.60;95.40;;;;;;5025609;28;8769;-68
2022/04/16 07:39:20;;;;;;;;;61.60;50.40;33.60;95.50;;;;;;5053352;28;8753;-68
2022/04/16 07:41:49;;;;;;;;;63.20;49.60;33.80;96.20;;;;;;5038290;28;8761;-68
2022/04/16 07:44:16;;;;;;;;;65.00;51.00;33.70;96.40;;;;;;5038051;28;8787;-68
2022/04/16 07:46:43;;;;;;;;;59.20;47.60;33.80;95.80;;;;;;5038142;28;8744;-68
2022/04/16 07:49:09;;;;;;;;;56.00;46.20;33.90;94.50;;;;;;5038429;28;8834;-68
2022/04/16 07:51:36;;;;;;;;;58.00;46.60;33.90;93.70;;;;;;5033086;28;8843;-68
2022/04/16 07:54:03;;;;;;;;;61.00;48.60;33.70;93.70;;;;;;5057425;28;8778;-68
2022/04/16 07:56:29;;;;;;;;;62.00;47.40;33.70;95.10;;;;;;5058870;28;9327;-67
2022/04/16 07:58:56;;;;;;;;;58.60;48.00;33.90;94.00;;;;;;5060394;28;8781;-68
2022/04/16 08:01:23;;;;;;;;;57.60;46.00;33.80;94.00;;;;;;5057586;28;8743;-67
2022/04/16 08:03:50;;;;;;;;;61.40;47.80;34.10;94.60;;;;;;5057205;28;8948;-68
2022/04/16 08:06:16;;;;;;;;;64.60;49.80;33.90;94.00;;;;;;5046065;28;8781;-68
2022/04/16 08:08:43;;;;;;;;;62.40;49.20;34.00;94.70;;;;;;5036811;28;8763;-68
2022/04/16 08:11:10;;;;;;;;;61.00;48.80;33.80;94.50;;;;;;5036638;28;8753;-68
2022/04/16 08:13:37;;;;;;;;;55.60;45.00;33.80;94.70;;;;;;5036708;28;9531;-68
2022/04/16 08:16:04;;;;;;;;;53.00;42.00;33.90;94.60;;;;;;5037786;28;8725;-68
2022/04/16 08:18:31;;;;;;;;;60.20;48.20;34.00;93.60;;;;;;5036629;28;8749;-68
2022/04/16 08:20:58;;;;;;;;;58.20;46.20;33.80;94.40;;;;;;5010771;28;8751;-68
2022/04/16 08:23:26;;;;;;;;;50.60;42.60;33.90;95.20;;;;;;5056836;28;8753;-67
2022/04/16 08:25:53;;;;;;;;;63.40;50.40;34.00;94.00;;;;;;5056307;28;8763;-68
2022/04/16 08:28:19;;;;;;;;;60.20;47.20;34.10;93.40;;;;;;5057066;28;8719;-66
2022/04/16 08:30:46;;;;;;;;;59.80;47.20;34.10;93.60;;;;;;5056709;28;8727;-68
2022/04/16 08:33:16;;;;;;;;;58.00;46.40;34.10;93.40;;;;;;5056778;28;8743;-68
2022/04/16 08:35:43;;;;;;;;;64.00;50.20;34.00;93.80;;;;;;5050642;28;9366;-68
2022/04/16 08:38:11;;;;;;;;;61.00;49.00;33.80;94.20;;;;;;5037031;28;9464;-68
2022/04/16 08:40:38;;;;;;;;;62.00;47.40;33.70;94.10;;;;;;5036443;28;8760;-68
2022/04/16 08:43:06;;;;;;;;;62.00;48.40;33.90;93.40;;;;;;5037416;28;8740;-68
2022/04/16 08:45:34;;;;;;;;;58.00;46.80;33.80;93.70;;;;;;5036287;28;8752;-68
2022/04/16 08:48:00;;;;;;;;;58.00;46.20;34.10;93.00;;;;;;5019257;28;8759;-68
2022/04/16 08:50:27;;;;;;;;;60.00;47.00;34.10;94.30;;;;;;5040119;28;8707;-68
2022/04/16 08:52:54;;;;;;;;;55.60;44.20;34.00;94.10;;;;;;5038996;28;8715;-68
2022/04/16 08:55:20;;;;;;;;;59.60;47.60;33.80;93.40;;;;;;5055319;28;8751;-68
2022/04/16 08:57:47;;;;;;;;;61.60;48.20;34.20;93.40;;;;;;5056418;28;8771;-68
2022/04/16 09:00:14;;;;;;;;;57.80;46.40;34.10;93.80;;;;;;5056661;28;8771;-69
2022/04/16 09:02:58;;;;;;;;;57.20;45.20;34.00;93.00;;;;;;5056398;28;8759;-68
2022/04/16 09:05:26;;;;;;;;;53.80;44.00;34.00;92.90;;;;;;5053019;28;8740;-68
2022/04/16 09:07:55;;;;;;;;;54.60;44.40;33.90;93.60;;;;;;5002441;28;8769;-69
2022/04/16 09:10:22;;;;;;;;;1.00;0.20;34.10;92.90;;;;;;5036947;28;8785;-68
2022/04/16 09:12:54;;;;;;;;;59.20;46.20;34.30;93.10;;;;;;5036206;28;8756;-68
2022/04/16 09:15:22;;;;;;;;;56.60;45.20;34.20;93.20;;;;;;5035723;28;8891;-68
2022/04/16 09:18:05;;;;;;;;;56.00;46.40;34.20;92.70;;;;;;5018442;28;8780;-68
2022/04/16 09:20:39;;;;;;;;;59.80;46.80;34.20;92.00;;;;;;5038874;28;8881;-68
2022/04/16 09:23:17;;;;;;;;;59.20;46.80;34.00;93.30;;;;;;5056307;28;8715;-68
2022/04/16 09:25:44;;;;;;;;;59.00;44.80;34.20;91.90;;;;;;5021674;28;8727;-68
2022/04/16 09:28:11;;;;;;;;;50.00;41.25;34.10;92.60;;;;;;5039239;28;8797;-68
2022/04/16 09:30:38;;;;;;;;;56.60;46.00;34.20;91.50;;;;;;5055722;28;8747;-68
2022/04/16 09:33:06;;;;;;;;;56.60;46.40;34.10;92.60;;;;;;5021747;28;8743;-68
2022/04/16 09:35:37;;;;;;;;;52.00;42.00;34.20;91.70;;;;;;5033856;28;8752;-68
2022/04/16 09:38:07;;;;;;;;;56.00;44.60;34.20;91.80;;;;;;5037703;28;8747;-68
2022/04/16 09:40:34;;;;;;;;;58.80;46.40;34.20;92.30;;;;;;5039193;28;8745;-68
2022/04/16 09:43:03;;;;;;;;;58.60;46.00;34.20;92.80;;;;;;5040475;28;8717;-68
2022/04/16 09:45:29;;;;;;;;;56.60;45.00;34.20;92.30;;;;;;5039478;28;9338;-68
2022/04/16 09:47:56;;;;;;;;;51.80;43.40;34.30;91.60;;;;;;5021760;28;8739;-68
2022/04/16 09:50:24;;;;;;;;;54.60;43.00;34.20;92.10;;;;;;5041585;28;9474;-68
2022/04/16 09:52:52;;;;;;;;;55.20;44.60;34.10;91.80;;;;;;5059480;28;8783;-68
2022/04/16 09:55:23;;;;;;;;;58.00;46.00;34.00;92.10;;;;;;5059566;28;8981;-68
2022/04/16 09:58:01;;;;;;;;;56.75;44.75;34.20;92.20;;;;;;5042122;28;8778;-68
2022/04/16 10:00:31;;;;;;;;;56.60;42.60;34.10;91.90;;;;;;5058785;28;8730;-68
2022/04/16 10:03:02;;;;;;;;;54.80;44.20;34.20;91.70;;;;;;5042173;28;8708;-68
2022/04/16 10:05:28;;;;;;;;;49.50;42.00;34.20;91.90;;;;;;5054977;28;8749;-68
2022/04/16 10:07:55;;;;;;;;;55.80;43.60;34.10;91.90;;;;;;5039386;28;8891;-68
2022/04/16 10:10:36;;;;;;;;;57.60;47.00;34.20;92.20;;;;;;5039791;28;8781;-67
2022/04/16 10:13:05;;;;;;;;;57.60;45.40;34.20;92.20;;;;;;5039813;28;8709;-68
2022/04/16 10:15:53;;;;;;;;;58.80;45.20;34.20;91.90;;;;;;5021270;28;8875;-68
2022/04/16 10:18:19;;;;;;;;;56.00;45.50;34.10;92.40;;;;;;5021565;28;8737;-66
2022/04/16 10:20:59;;;;;;;;;52.20;41.80;34.00;92.50;;;;;;5027641;28;8731;-68
2022/04/16 10:23:30;;;;;;;;;52.80;42.00;34.00;92.00;;;;;;5058508;28;8735;-68
2022/04/16 10:26:05;;;;;;;;;58.00;45.60;34.10;91.60;;;;;;5058710;28;8755;-68
2022/04/16 10:28:36;;;;;;;;;56.60;43.20;34.00;91.80;;;;;;5058377;28;8844;-68
2022/04/16 10:31:03;;;;;;;;;53.20;43.40;34.00;92.30;;;;;;5059386;28;8731;-68
2022/04/16 10:33:31;;;;;;;;;51.00;42.80;34.00;92.00;;;;;;5058448;28;8758;-68
2022/04/16 10:36:01;;;;;;;;;57.80;46.20;34.00;92.50;;;;;;5050791;28;8737;-68
2022/04/16 10:38:38;;;;;;;;;53.00;43.25;33.90;92.30;;;;;;5021285;28;8749;-67
2022/04/16 10:41:14;;;;;;;;;53.50;42.50;33.80;92.90;;;;;;5039168;28;9410;-68
2022/04/16 10:43:41;;;;;;;;;51.25;42.00;33.80;93.70;;;;;;5038794;28;8752;-68
2022/04/16 10:46:09;;;;;;;;;55.50;43.50;33.60;94.10;;;;;;5039372;28;8729;-68
2022/04/16 10:48:38;;;;;;;;;53.80;44.00;33.40;94.40;;;;;;5037671;28;8753;-68
2022/04/16 10:51:08;;;;;;;;;52.00;42.40;33.30;94.20;;;;;;5047202;28;8727;-68
2022/04/16 10:53:36;;;;;;;;;55.00;45.75;33.30;95.10;;;;;;5048747;28;8857;-68
2022/04/16 10:56:20;;;;;;;;;56.80;45.40;33.20;96.40;;;;;;5058272;28;8778;-68
2022/04/16 10:58:48;;;;;;;;;55.40;44.00;33.20;95.70;;;;;;5058261;28;8763;-68
2022/04/16 11:01:25;;;;;;;;;58.75;45.50;33.20;96.20;;;;;;5058655;28;8766;-68
2022/04/16 11:03:53;;;;;;;;;57.75;44.75;33.10;96.00;;;;;;5058520;28;8767;-68
2022/04/16 11:06:20;;;;;;;;;51.75;42.50;33.10;96.10;;;;;;5020131;28;8746;-67
2022/04/16 11:08:47;;;;;;;;;52.00;42.00;33.00;95.00;;;;;;5037221;28;8742;-68
2022/04/16 11:11:14;;;;;;;;;53.50;42.50;33.00;94.70;;;;;;5038173;28;8766;-68
2022/04/16 11:13:42;;;;;;;;;56.25;44.75;32.90;94.80;;;;;;5053345;28;8849;-68
2022/04/16 11:16:09;;;;;;;;;52.80;42.80;32.90;94.60;;;;;;5054147;28;8849;-68
2022/04/16 11:18:42;;;;;;;;;55.60;44.20;32.90;94.40;;;;;;5038063;28;8746;-68
2022/04/16 11:21:10;;;;;;;;;60.00;46.50;32.90;94.20;;;;;;5047240;28;8732;-68
2022/04/16 11:23:49;;;;;;;;;54.50;44.50;32.90;94.40;;;;;;5072874;28;8751;-69
2022/04/16 11:34:34;;;;;;;;;56.80;45.80;32.70;97.80;;;;;;5057378;28;8741;-68
2022/04/16 11:37:01;;;;;;;;;52.75;43.00;32.60;96.30;;;;;;5057271;28;8719;-68
2022/04/16 11:39:30;;;;;;;;;58.20;46.80;32.70;96.80;;;;;;5037683;28;9155;-68
2022/04/16 11:41:59;;;;;;;;;58.50;45.75;32.70;97.40;;;;;;5037953;28;9165;-68
2022/04/16 11:44:41;;;;;;;;;57.20;45.40;32.70;98.20;;;;;;5037572;28;8747;-67
2022/04/16 11:47:28;;;;;;;;;59.40;46.20;32.70;99.10;;;;;;5037482;28;8750;-68
2022/04/16 11:50:03;;;;;;;;;59.80;44.40;32.60;99.10;;;;;;5019989;28;8803;-68
2022/04/16 11:52:31;;;;;;;;;61.00;47.40;32.60;98.20;;;;;;5037537;28;8762;-68
2022/04/16 11:55:17;;;;;;;;;60.40;47.80;32.60;98.40;;;;;;5038167;28;8731;-68
2022/04/16 11:57:48;;;;;;;;;60.00;47.80;32.60;99.30;;;;;;5026567;28;8789;-68
2022/04/16 12:00:15;;;;;;;;;59.00;47.20;32.50;99.50;;;;;;5019125;28;9249;-68
2022/04/16 12:02:48;;;;;;;;;58.00;47.75;32.60;99.40;;;;;;5019815;28;8863;-68
2022/04/16 12:05:18;;;;;;;;;60.80;48.40;32.60;99.50;;;;;;5039078;28;8828;-68
2022/04/16 12:07:48;;;;;;;;;54.80;45.20;32.50;98.60;;;;;;5039451;28;8867;-68
2022/04/16 12:10:15;;;;;;;;;59.00;48.00;32.40;98.00;;;;;;5057566;28;8782;-69
2022/04/16 12:12:45;;;;;;;;;59.60;45.60;32.40;98.70;;;;;;5056714;28;8754;-68
2022/04/16 12:15:12;;;;;;;;;55.00;44.80;32.40;98.70;;;;;;5040138;28;8868;-69
2022/04/16 12:17:40;;;;;;;;;56.80;46.60;32.40;98.50;;;;;;5039480;28;8814;-68
2022/04/16 12:20:10;;;;;;;;;59.80;47.20;32.40;97.70;;;;;;5038774;28;8755;-68
2022/04/16 12:23:10;;;;;;;;;61.40;46.80;32.40;98.10;;;;;;5036603;28;8737;-68
2022/04/16 12:25:37;;;;;;;;;52.20;42.40;32.40;97.10;;;;;;5005398;28;8785;-68
2022/04/16 12:28:08;;;;;;;;;61.80;47.80;32.40;97.20;;;;;;5037603;28;8749;-69
2022/04/16 12:30:37;;;;;;;;;58.80;47.00;32.30;97.50;;;;;;5019815;28;8796;-68
2022/04/16 12:33:07;;;;;;;;;58.60;45.60;32.30;97.50;;;;;;5036610;28;8753;-68
2022/04/16 12:35:38;;;;;;;;;60.60;48.60;32.40;97.70;;;;;;5040866;28;8779;-68
2022/04/16 12:38:05;;;;;;;;;62.60;46.80;32.40;98.60;;;;;;5056566;28;8755;-68
2022/04/16 12:40:33;;;;;;;;;61.00;47.60;32.30;98.10;;;;;;5038676;28;8795;-69
2022/04/16 12:43:00;;;;;;;;;58.60;45.20;32.30;98.00;;;;;;5056994;28;8763;-68
2022/04/16 12:45:28;;;;;;;;;64.20;50.80;32.30;97.90;;;;;;5056187;28;8785;-68
2022/04/16 12:47:57;;;;;;;;;66.20;51.00;32.30;98.00;;;;;;5022569;28;8771;-68
2022/04/16 12:50:27;;;;;;;;;62.00;47.60;32.20;98.50;;;;;;5053015;28;8856;-68
2022/04/16 12:52:54;;;;;;;;;62.60;49.00;32.10;98.00;;;;;;5019235;28;8775;-68
2022/04/16 12:55:21;;;;;;;;;56.00;45.00;32.00;97.70;;;;;;5036731;28;8830;-68
2022/04/16 12:57:48;;;;;;;;;68.40;52.80;31.80;97.90;;;;;;5019088;28;8771;-68
2022/04/16 13:00:15;;;;;;;;;73.00;58.40;32.00;96.50;;;;;;5036490;28;9483;-68